Peru, KS

6:57 PM CST on March 04, 2015 (GMT -0600)
Coffeyville Municipal | Change Station
CLOSE
Current Station
Airport
Location: Coffeyville,
Elevation: 751 ft
Nearby Weather Stations

Elev 751 ft 37.09 °N, 95.57 °W | Updated 5 minutes ago

Overcast
Overcast
26 °F
Feels Like 16 °F
N
10
Wind Variable Wind from North

Today
High -- | Low -- °F
--% Chance of Precip.
Yesterday
High -- | Low -- °F
Precip. -- in
6:51 AM 6:21 PM
Full, 100% visible
Pressure 30.41 in
Visibility 10.0 miles
Clouds Overcast 9000 ft
Windchill 16 °F
Dew Point 9 °F
Humidity 49%
Rainfall 0.02 in
Snow Depth Not available.
UV 0 out of 12
Pollen 1.00 out of 12
Air Quality Not available.
Flu Activity Not available.
METAR KCFV 050052Z AUTO 01009KT 10SM OVC090 M03/M13 A3038 RMK AO2 PRESRR SLP296 T10331128

More Conditions Fewer Conditions

Pressure 30.41 in
Visibility 10.0 miles
Clouds Overcast 9000 ft
Windchill 16 °F
Dew Point 9 °F
Humidity 49%
Rainfall 0.02 in
Snow Depth Not available.
UV 0 out of 12
Pollen 1.00 out of 12
Air Quality Not available.
Flu Activity Not available.
METAR KCFV 050052Z AUTO 01009KT 10SM OVC090 M03/M13 A3038 RMK AO2 PRESRR SLP296 T10331128

More Conditions Fewer Conditions

10-Day Weather Forecast

Almanac

Astronomy

Mar. 04, 2015 Rise Set
Actual Time
Civil Twilight
Nautical Twilight
Astronomical Twilight
Moon
Length of Visible Light
Length of Day
Tomorrow will be .
, % of the Moon is Illuminated

Today's Extremes

State Highs State Lows

Community

WunderPhotos

Upload Photos

1,802,608 photos uploaded!

WunderBlogs® & News

Nearby

Air Quality

  Air Quality AQ Index Pollutant
Not available.

Snow Depth

Station Depth Elevation

Earthquake Activity

City Distance Mag. Time & Date
Minimum magnitude displayed is 2.5.

Coastal Water Temperatures

Place Temperature

Nearby Weather Stations